Time;durP1;ratioP1;P1;durP2;ratioP2;P2;SDS_P1;SDS_P2;PMS_P1;PMS_P2;Temp;Humidity;BMP_temperature;BMP_pressure;BME280_temperature;BME280_humidity;BME280_pressure;Samples;Min_cycle;Max_cycle;Signal;HPM_P1;HPM_P2
2021/12/03 00:13:23;;;;;;;0.30;0.30;;;0.80;94.60;-0.90;100915.00;;;;30882617;28;20047;-71
2021/12/03 00:28:24;;;;;;;0.30;0.30;;;0.70;94.60;-0.90;100923.00;;;;30882443;28;20573;-72
2021/12/03 00:43:33;;;;;;;0.30;0.30;;;0.70;94.60;-1.00;100927.00;;;;30898693;28;20053;-71
2021/12/03 00:58:36;;;;;;;0.40;0.40;;;0.70;94.60;-1.00;100913.00;;;;30945517;28;20137;-71
2021/12/03 01:13:40;;;;;;;0.40;0.40;;;0.60;94.60;-1.00;100910.00;;;;31015608;28;20038;-71
2021/12/03 01:28:42;;;;;;;0.40;0.40;;;0.70;94.70;-1.00;100932.00;;;;30914620;28;20074;-71
2021/12/03 01:43:44;;;;;;;0.30;0.30;;;0.60;95.10;-1.00;100922.00;;;;30871606;28;20054;-70
2021/12/03 01:58:51;;;;;;;0.30;0.30;;;0.10;95.30;-1.00;100920.00;;;;30887362;28;20228;-71
2021/12/03 02:13:54;;;;;;;;;;;0.70;96.20;-0.70;100917.00;;;;30885136;28;20049;-71
2021/12/03 02:38:20;;;;;;;0.40;0.40;;;1.10;95.60;-0.40;100922.00;;;;31256278;28;20956;-72
2021/12/03 02:53:23;;;;;;;0.30;0.30;;;1.10;96.10;-0.20;100916.00;;;;31118203;28;20049;-70
2021/12/03 03:08:28;;;;;;;0.30;0.30;;;1.00;95.50;0.10;100912.00;;;;31111357;28;21440;-71
2021/12/03 03:23:30;;;;;;;0.40;0.40;;;1.70;95.40;0.30;100919.00;;;;31086229;28;20041;-71
2021/12/03 03:38:32;;;;;;;0.30;0.30;;;1.80;95.30;0.40;100915.00;;;;31085031;28;20050;-71
2021/12/03 04:10:29;;;;;;;0.25;0.25;;;2.20;95.50;0.70;100882.00;;;;31005573;28;20064;-71
2021/12/03 04:25:31;;;;;;;0.33;0.33;;;;;0.90;100885.00;;;;30986228;28;20124;-71
2021/12/03 04:48:17;;;;;;;0.30;0.30;;;2.30;95.80;1.10;100898.00;;;;31142679;28;20804;-73
2021/12/03 05:03:24;;;;;;;1.15;1.15;;;2.40;95.50;1.00;100879.00;;;;30959920;28;20043;-73
2021/12/03 05:18:28;;;;;;;0.27;0.27;;;2.40;95.70;1.00;100873.00;;;;30926730;28;20042;-73
2021/12/03 05:33:29;;;;;;;0.30;0.30;;;2.50;95.60;1.10;100875.00;;;;30961696;28;20057;-74
2021/12/03 05:48:30;;;;;;;0.30;0.30;;;2.70;95.70;1.30;100869.00;;;;30897653;28;20055;-74
2021/12/03 06:03:32;;;;;;;0.30;0.30;;;2.80;95.50;1.40;100867.00;;;;30884034;28;20415;-74
2021/12/03 06:18:34;;;;;;;0.30;0.30;;;2.80;96.60;1.40;100859.00;;;;30813628;28;20545;-74
2021/12/03 06:33:35;;;;;;;0.30;0.30;;;2.90;95.60;1.50;100866.00;;;;30895704;28;20042;-73
2021/12/03 06:48:39;;;;;;;0.20;0.20;;;3.90;96.50;1.50;100857.00;;;;30847401;28;20111;-73
2021/12/03 07:03:42;;;;;;;0.30;0.30;;;2.90;95.50;1.60;100852.00;;;;30854763;28;20150;-73
2021/12/03 07:18:53;;;;;;;0.40;0.40;;;3.00;95.20;1.60;100825.00;;;;30814025;28;20108;-73
2021/12/03 07:33:55;;;;;;;0.40;0.40;;;3.10;95.10;1.70;100826.00;;;;30826590;28;20043;-73
2021/12/03 07:48:57;;;;;;;0.30;0.30;;;3.10;94.20;1.60;100833.00;;;;30807860;28;20621;-73
2021/12/03 08:04:00;;;;;;;0.28;0.28;;;3.10;93.80;1.70;100834.00;;;;30835599;28;20031;-72
2021/12/03 08:19:07;;;;;;;0.30;0.30;;;3.20;93.40;1.80;100820.00;;;;30835361;28;20046;-72
2021/12/03 08:34:08;;;;;;;0.20;0.20;;;3.10;93.80;1.80;100800.00;;;;30823071;28;20062;-72
2021/12/03 08:49:16;;;;;;;0.20;0.20;;;3.20;93.20;1.90;100807.00;;;;30846785;28;20109;-71
2021/12/03 09:04:18;;;;;;;0.43;0.43;;;3.40;93.40;2.00;100783.00;;;;30819009;28;20035;-72
2021/12/03 09:19:26;;;;;;;0.30;0.30;;;3.50;92.80;2.20;100777.00;;;;30868658;28;20624;-72
2021/12/03 09:34:30;;;;;;;0.40;0.40;;;3.60;92.60;2.30;100785.00;;;;30874493;28;20589;-72
2021/12/03 09:49:37;;;;;;;0.20;0.20;;;3.70;92.40;2.50;100780.00;;;;30820568;28;20046;-73
2021/12/03 11:06:21;;;;;;;0.30;0.30;;;4.20;92.20;3.10;100662.00;;;;30864873;28;20086;-75
2021/12/03 14:40:19;;;;;;;0.20;0.20;;;5.30;90.70;4.00;100380.00;;;;30815351;28;20277;-78
2021/12/03 14:55:27;;;;;;;0.20;0.20;;;5.10;91.30;4.00;100372.00;;;;30802647;28;20039;-77
2021/12/03 15:10:56;;;;;;;0.20;0.20;;;5.10;91.50;3.90;100387.00;;;;30798165;28;20038;-77
2021/12/03 16:58:06;;;;;;;0.20;0.20;;;5.90;95.40;3.60;100287.00;;;;30829165;28;20203;-79
2021/12/03 17:29:10;;;;;;;0.20;0.20;;;4.90;95.20;3.60;100275.00;;;;30854263;28;20509;-79
2021/12/03 17:59:25;;;;;;;0.30;0.30;;;4.90;95.50;3.60;100204.00;;;;30755006;28;20050;-80
2021/12/03 19:08:57;;;;;;;0.50;0.50;;;5.00;95.70;3.80;100188.00;;;;31322765;28;20040;-79
2021/12/03 19:24:01;;;;;;;0.25;0.25;;;5.10;95.10;3.90;100176.00;;;;31272434;28;20636;-79
2021/12/03 19:39:03;;;;;;;0.20;0.20;;;5.10;95.30;3.90;100167.00;;;;31345194;27;20128;-80
2021/12/03 19:54:05;;;;;;;0.28;0.28;;;5.10;95.30;3.90;100155.00;;;;31362060;27;20566;-80
2021/12/03 20:09:10;;;;;;;0.30;0.30;;;5.20;95.50;3.90;100152.00;;;;31338449;27;20055;-80
2021/12/03 20:24:29;;;;;;;0.30;0.30;;;5.10;95.60;4.00;100133.00;;;;31351208;28;20181;-77
2021/12/03 20:39:40;;;;;;;0.20;0.20;;;5.20;95.50;3.90;100120.00;;;;31328701;28;20060;-78
2021/12/03 21:09:47;;;;;;;0.22;0.22;;;5.10;95.70;3.90;100108.00;;;;31329283;28;20049;-78
2021/12/03 21:24:51;;;;;;;0.20;0.20;;;5.10;95.70;3.80;100068.00;;;;31320478;28;20040;-79
2021/12/03 21:40:03;;;;;;;0.20;0.20;;;5.10;95.80;3.80;100061.00;;;;31312567;28;20044;-79
2021/12/03 21:55:07;;;;;;;0.20;0.20;;;5.10;96.40;3.80;100048.00;;;;31297550;28;20053;-78
2021/12/03 22:10:08;;;;;;;0.25;0.25;;;5.10;95.70;3.90;100043.00;;;;31327683;28;20045;-79
2021/12/03 22:25:10;;;;;;;0.20;0.20;;;5.10;95.70;3.90;100038.00;;;;31327376;28;20053;-79
2021/12/03 22:40:13;;;;;;;0.30;0.30;;;5.30;96.20;3.80;100033.00;;;;31325279;28;20040;-78
2021/12/03 22:55:15;;;;;;;0.40;0.40;;;5.10;95.90;3.80;100022.00;;;;31322369;28;20048;-79
2021/12/03 23:10:16;;;;;;;0.25;0.25;;;5.00;96.10;3.80;100001.00;;;;31323211;28;20060;-79
2021/12/03 23:25:18;;;;;;;0.20;0.20;;;5.10;96.10;3.80;99968.00;;;;31351164;27;20064;-79
2021/12/03 23:40:20;;;;;;;0.30;0.30;;;5.10;96.20;3.80;99946.00;;;;31321885;28;20073;-79
2021/12/03 23:55:27;;;;;;;0.30;0.30;;;5.10;96.10;3.80;99927.00;;;;31349223;28;20048;-79
